sensor_id;sensor_type;location;lat;lon;timestamp;pressure;altitude;pressure_sealevel;temperature;humidity
72157;BME280;60035;52.122;5.406;2023-05-12T00:01:15;101899.97;;;12.03;100.00
72157;BME280;60035;52.122;5.406;2023-05-12T00:03:42;101902.53;;;12.01;100.00
72157;BME280;60035;52.122;5.406;2023-05-12T00:06:09;101901.75;;;11.99;100.00
72157;BME280;60035;52.122;5.406;2023-05-12T00:08:36;101901.75;;;11.99;100.00
72157;BME280;60035;52.122;5.406;2023-05-12T00:11:03;101899.22;;;11.97;100.00
72157;BME280;60035;52.122;5.406;2023-05-12T00:13:29;101890.63;;;11.98;100.00
72157;BME280;60035;52.122;5.406;2023-05-12T00:15:56;101897.47;;;11.98;100.00
72157;BME280;60035;52.122;5.406;2023-05-12T00:18:24;101882.13;;;11.96;100.00
72157;BME280;60035;52.122;5.406;2023-05-12T00:20:51;101892.41;;;11.93;100.00
72157;BME280;60035;52.122;5.406;2023-05-12T00:23:20;101895.88;;;11.91;100.00
72157;BME280;60035;52.122;5.406;2023-05-12T00:25:47;101892.44;;;11.90;100.00
72157;BME280;60035;52.122;5.406;2023-05-12T00:28:14;101885.66;;;11.88;100.00
72157;BME280;60035;52.122;5.406;2023-05-12T00:30:40;101886.53;;;11.87;100.00
72157;BME280;60035;52.122;5.406;2023-05-12T00:33:07;101886.53;;;11.87;100.00
72157;BME280;60035;52.122;5.406;2023-05-12T00:35:33;101884.81;;;11.87;100.00
72157;BME280;60035;52.122;5.406;2023-05-12T00:38:00;101877.16;;;11.86;100.00
72157;BME280;60035;52.122;5.406;2023-05-12T00:40:26;101876.25;;;11.87;100.00
72157;BME280;60035;52.122;5.406;2023-05-12T00:42:53;101874.63;;;11.84;100.00
72157;BME280;60035;52.122;5.406;2023-05-12T00:45:22;101874.66;;;11.81;100.00
72157;BME280;60035;52.122;5.406;2023-05-12T00:47:50;101882.38;;;11.79;100.00
72157;BME280;60035;52.122;5.406;2023-05-12T00:50:17;101872.16;;;11.78;100.00
72157;BME280;60035;52.122;5.406;2023-05-12T00:52:45;101872.19;;;11.76;100.00
72157;BME280;60035;52.122;5.406;2023-05-12T00:55:12;101868.72;;;11.77;100.00
72157;BME280;60035;52.122;5.406;2023-05-12T00:57:39;101875.59;;;11.77;100.00
72157;BME280;60035;52.122;5.406;2023-05-12T01:00:06;101873.88;;;11.76;100.00
72157;BME280;60035;52.122;5.406;2023-05-12T01:02:34;101868.75;;;11.76;100.00
72157;BME280;60035;52.122;5.406;2023-05-12T01:05:02;101867.91;;;11.75;100.00
72157;BME280;60035;52.122;5.406;2023-05-12T01:07:31;101869.66;;;11.75;100.00
72157;BME280;60035;52.122;5.406;2023-05-12T01:09:58;101865.38;;;11.74;100.00
72157;BME280;60035;52.122;5.406;2023-05-12T01:12:26;101855.97;;;11.74;100.00
72157;BME280;60035;52.122;5.406;2023-05-12T01:14:54;101853.44;;;11.73;100.00
72157;BME280;60035;52.122;5.406;2023-05-12T01:17:32;101856.06;;;11.70;100.00
72157;BME280;60035;52.122;5.406;2023-05-12T01:20:01;101857.75;;;11.69;100.00
72157;BME280;60035;52.122;5.406;2023-05-12T01:22:30;101853.50;;;11.70;100.00
72157;BME280;60035;52.122;5.406;2023-05-12T01:25:01;101855.22;;;11.67;100.00
72157;BME280;60035;52.122;5.406;2023-05-12T01:27:29;101848.38;;;11.66;100.00
72157;BME280;60035;52.122;5.406;2023-05-12T01:29:58;101837.28;;;11.66;100.00
72157;BME280;60035;52.122;5.406;2023-05-12T01:32:25;101840.69;;;11.66;100.00
72157;BME280;60035;52.122;5.406;2023-05-12T01:34:52;101841.56;;;11.65;100.00
72157;BME280;60035;52.122;5.406;2023-05-12T01:37:18;101840.69;;;11.66;100.00
72157;BME280;60035;52.122;5.406;2023-05-12T01:39:45;101845.78;;;11.68;100.00
72157;BME280;60035;52.122;5.406;2023-05-12T01:42:11;101838.94;;;11.70;100.00
72157;BME280;60035;52.122;5.406;2023-05-12T01:44:38;101840.59;;;11.73;100.00
72157;BME280;60035;52.122;5.406;2023-05-12T01:47:04;101837.22;;;11.69;100.00
72157;BME280;60035;52.122;5.406;2023-05-12T01:49:35;101834.66;;;11.69;100.00
72157;BME280;60035;52.122;5.406;2023-05-12T01:52:01;101842.38;;;11.69;100.00
72157;BME280;60035;52.122;5.406;2023-05-12T01:54:28;101844.94;;;11.69;100.00
72157;BME280;60035;52.122;5.406;2023-05-12T01:56:55;101851.78;;;11.69;100.00
72157;BME280;60035;52.122;5.406;2023-05-12T01:59:21;101846.69;;;11.67;100.00
72157;BME280;60035;52.122;5.406;2023-05-12T02:01:48;101845.78;;;11.68;100.00
72157;BME280;60035;52.122;5.406;2023-05-12T02:04:14;101848.34;;;11.68;100.00
72157;BME280;60035;52.122;5.406;2023-05-12T02:06:41;101848.34;;;11.68;100.00
72157;BME280;60035;52.122;5.406;2023-05-12T02:09:07;101850.09;;;11.67;100.00
72157;BME280;60035;52.122;5.406;2023-05-12T02:11:34;101844.97;;;11.67;100.00
72157;BME280;60035;52.122;5.406;2023-05-12T02:14:00;101846.63;;;11.70;100.00
72157;BME280;60035;52.122;5.406;2023-05-12T02:16:27;101837.19;;;11.72;100.00
72157;BME280;60035;52.122;5.406;2023-05-12T02:18:53;101844.00;;;11.73;100.00
72157;BME280;60035;52.122;5.406;2023-05-12T02:21:20;101840.59;;;11.73;100.00
72157;BME280;60035;52.122;5.406;2023-05-12T02:23:46;101833.75;;;11.72;100.00
72157;BME280;60035;52.122;5.406;2023-05-12T02:26:13;101836.34;;;11.72;100.00
72157;BME280;60035;52.122;5.406;2023-05-12T02:28:39;101838.91;;;11.72;100.00
72157;BME280;60035;52.122;5.406;2023-05-12T02:31:06;101832.06;;;11.72;100.00
72157;BME280;60035;52.122;5.406;2023-05-12T02:33:32;101833.84;;;11.69;100.00
72157;BME280;60035;52.122;5.406;2023-05-12T02:35:59;101844.09;;;11.69;100.00
72157;BME280;60035;52.122;5.406;2023-05-12T02:38:25;101833.88;;;11.67;100.00
72157;BME280;60035;52.122;5.406;2023-05-12T02:40:52;101824.47;;;11.66;100.00
72157;BME280;60035;52.122;5.406;2023-05-12T02:43:19;101823.59;;;11.65;100.00
72157;BME280;60035;52.122;5.406;2023-05-12T02:45:45;101821.03;;;11.65;100.00
72157;BME280;60035;52.122;5.406;2023-05-12T02:48:12;101823.59;;;11.67;100.00
72157;BME280;60035;52.122;5.406;2023-05-12T02:50:38;101821.94;;;11.64;100.00
72157;BME280;60035;52.122;5.406;2023-05-12T02:53:05;101822.81;;;11.63;100.00
72157;BME280;60035;52.122;5.406;2023-05-12T02:55:32;101818.53;;;11.62;100.00
72157;BME280;60035;52.122;5.406;2023-05-12T02:57:59;101821.16;;;11.59;100.00
72157;BME280;60035;52.122;5.406;2023-05-12T03:00:25;101814.28;;;11.61;100.00
72157;BME280;60035;52.122;5.406;2023-05-12T03:02:52;101821.13;;;11.61;100.00
72157;BME280;60035;52.122;5.406;2023-05-12T03:05:18;101819.44;;;11.60;100.00
72157;BME280;60035;52.122;5.406;2023-05-12T03:07:46;101825.44;;;11.59;100.00
72157;BME280;60035;52.122;5.406;2023-05-12T03:10:14;101827.19;;;11.57;100.00
72157;BME280;60035;52.122;5.406;2023-05-12T03:12:40;101829.75;;;11.57;100.00
72157;BME280;60035;52.122;5.406;2023-05-12T03:15:07;101826.34;;;11.56;100.00
72157;BME280;60035;52.122;5.406;2023-05-12T03:17:34;101817.78;;;11.57;100.00
72157;BME280;60035;52.122;5.406;2023-05-12T03:20:02;101828.00;;;11.60;100.00
72157;BME280;60035;52.122;5.406;2023-05-12T03:22:29;101810.03;;;11.59;100.00
72157;BME280;60035;52.122;5.406;2023-05-12T03:24:55;101817.75;;;11.59;100.00
72157;BME280;60035;52.122;5.406;2023-05-12T03:27:22;101812.59;;;11.59;100.00
72157;BME280;60035;52.122;5.406;2023-05-12T03:29:48;101809.19;;;11.60;100.00
72157;BME280;60035;52.122;5.406;2023-05-12T03:32:15;101815.13;;;11.62;100.00
72157;BME280;60035;52.122;5.406;2023-05-12T03:34:41;101798.88;;;11.61;100.00
72157;BME280;60035;52.122;5.406;2023-05-12T03:37:08;101808.28;;;11.62;100.00
72157;BME280;60035;52.122;5.406;2023-05-12T03:39:34;101806.53;;;11.64;100.00
72157;BME280;60035;52.122;5.406;2023-05-12T03:42:01;101800.59;;;11.62;100.00
72157;BME280;60035;52.122;5.406;2023-05-12T03:44:28;101792.91;;;11.61;100.00
72157;BME280;60035;52.122;5.406;2023-05-12T03:46:54;101805.72;;;11.62;100.00
72157;BME280;60035;52.122;5.406;2023-05-12T03:49:21;101804.00;;;11.61;100.00
72157;BME280;60035;52.122;5.406;2023-05-12T03:51:47;101808.28;;;11.62;100.00
72157;BME280;60035;52.122;5.406;2023-05-12T03:54:13;101812.53;;;11.63;100.00
72157;BME280;60035;52.122;5.406;2023-05-12T03:56:40;101808.25;;;11.64;100.00
72157;BME280;60035;52.122;5.406;2023-05-12T03:59:06;101798.84;;;11.64;100.00
72157;BME280;60035;52.122;5.406;2023-05-12T04:01:33;101802.25;;;11.65;100.00
72157;BME280;60035;52.122;5.406;2023-05-12T04:04:00;101799.69;;;11.65;100.00
72157;BME280;60035;52.122;5.406;2023-05-12T04:06:27;101793.69;;;11.66;100.00
72157;BME280;60035;52.122;5.406;2023-05-12T04:08:53;101791.13;;;11.66;100.00
72157;BME280;60035;52.122;5.406;2023-05-12T04:11:20;101798.78;;;11.67;100.00
72157;BME280;60035;52.122;5.406;2023-05-12T04:13:46;101809.88;;;11.68;100.00
72157;BME280;60035;52.122;5.406;2023-05-12T04:16:13;101805.59;;;11.69;100.00
72157;BME280;60035;52.122;5.406;2023-05-12T04:18:39;101802.97;;;11.72;100.00
72157;BME280;60035;52.122;5.406;2023-05-12T04:21:06;101808.06;;;11.73;100.00
72157;BME280;60035;52.122;5.406;2023-05-12T04:23:32;101810.63;;;11.75;100.00
72157;BME280;60035;52.122;5.406;2023-05-12T04:26:02;101812.31;;;11.76;100.00
72157;BME280;60035;52.122;5.406;2023-05-12T04:28:29;101807.13;;;11.77;100.00
72157;BME280;60035;52.122;5.406;2023-05-12T04:30:55;101813.97;;;11.78;100.00
72157;BME280;60035;52.122;5.406;2023-05-12T04:33:21;101815.63;;;11.81;100.00
72157;BME280;60035;52.122;5.406;2023-05-12T04:35:48;101813.94;;;11.80;100.00
72157;BME280;60035;52.122;5.406;2023-05-12T04:38:14;101819.91;;;11.82;100.00
72157;BME280;60035;52.122;5.406;2023-05-12T04:40:41;101818.13;;;11.86;100.00
72157;BME280;60035;52.122;5.406;2023-05-12T04:43:07;101823.25;;;11.86;100.00
72157;BME280;60035;52.122;5.406;2023-05-12T04:45:34;101814.66;;;11.88;100.00
72157;BME280;60035;52.122;5.406;2023-05-12T04:48:00;101823.13;;;11.92;100.00
72157;BME280;60035;52.122;5.406;2023-05-12T04:50:27;101823.97;;;11.92;100.00
72157;BME280;60035;52.122;5.406;2023-05-12T04:52:53;101825.69;;;11.93;100.00
72157;BME280;60035;52.122;5.406;2023-05-12T04:55:20;101829.91;;;11.96;100.00
72157;BME280;60035;52.122;5.406;2023-05-12T04:57:47;101829.88;;;11.99;100.00
72157;BME280;60035;52.122;5.406;2023-05-12T05:00:13;101835.00;;;11.99;100.00
72157;BME280;60035;52.122;5.406;2023-05-12T05:02:40;101838.38;;;12.01;100.00
72157;BME280;60035;52.122;5.406;2023-05-12T05:05:07;101842.63;;;12.02;100.00
72157;BME280;60035;52.122;5.406;2023-05-12T05:07:34;101837.44;;;12.05;100.00
72157;BME280;60035;52.122;5.406;2023-05-12T05:10:00;101838.25;;;12.07;100.00
72157;BME280;60035;52.122;5.406;2023-05-12T05:12:27;101854.50;;;12.09;100.00
72157;BME280;60035;52.122;5.406;2023-05-12T05:14:53;101856.16;;;12.10;100.00
72157;BME280;60035;52.122;5.406;2023-05-12T05:17:20;101862.91;;;12.16;100.00
72157;BME280;60035;52.122;5.406;2023-05-12T05:19:46;101868.03;;;12.18;100.00
72157;BME280;60035;52.122;5.406;2023-05-12T05:22:23;101866.25;;;12.21;100.00
72157;BME280;60035;52.122;5.406;2023-05-12T05:24:50;101869.66;;;12.22;100.00
72157;BME280;60035;52.122;5.406;2023-05-12T05:27:17;101868.75;;;12.24;100.00
72157;BME280;60035;52.122;5.406;2023-05-12T05:29:44;101868.66;;;12.27;100.00
72157;BME280;60035;52.122;5.406;2023-05-12T05:32:11;101868.63;;;12.29;100.00
72157;BME280;60035;52.122;5.406;2023-05-12T05:34:37;101866.81;;;12.34;100.00
72157;BME280;60035;52.122;5.406;2023-05-12T05:37:04;101865.09;;;12.36;100.00
72157;BME280;60035;52.122;5.406;2023-05-12T05:39:30;101862.44;;;12.39;100.00
72157;BME280;60035;52.122;5.406;2023-05-12T05:41:57;101866.66;;;12.42;100.00
72157;BME280;60035;52.122;5.406;2023-05-12T05:44:24;101870.03;;;12.45;100.00
72157;BME280;60035;52.122;5.406;2023-05-12T05:46:50;101876.78;;;12.49;100.00
72157;BME280;60035;52.122;5.406;2023-05-12T05:49:17;101874.16;;;12.53;100.00
72157;BME280;60035;52.122;5.406;2023-05-12T05:51:44;101873.25;;;12.55;100.00
72157;BME280;60035;52.122;5.406;2023-05-12T05:54:10;101880.03;;;12.58;100.00
72157;BME280;60035;52.122;5.406;2023-05-12T05:56:37;101885.13;;;12.59;100.00
72157;BME280;60035;52.122;5.406;2023-05-12T05:59:04;101883.34;;;12.63;100.00
72157;BME280;60035;52.122;5.406;2023-05-12T06:01:31;101897.06;;;12.63;100.00
72157;BME280;60035;52.122;5.406;2023-05-12T06:03:58;101890.16;;;12.65;100.00
72157;BME280;60035;52.122;5.406;2023-05-12T06:06:25;101891.81;;;12.68;100.00
72157;BME280;60035;52.122;5.406;2023-05-12T06:08:51;101896.88;;;12.73;100.00
72157;BME280;60035;52.122;5.406;2023-05-12T06:11:21;101894.19;;;12.77;100.00
72157;BME280;60035;52.122;5.406;2023-05-12T06:13:47;101898.41;;;12.80;100.00
72157;BME280;60035;52.122;5.406;2023-05-12T06:16:14;101887.19;;;12.84;100.00
72157;BME280;60035;52.122;5.406;2023-05-12T06:18:40;101909.38;;;12.88;100.00
72157;BME280;60035;52.122;5.406;2023-05-12T06:21:07;101902.38;;;12.95;100.00
72157;BME280;60035;52.122;5.406;2023-05-12T06:23:33;101905.69;;;13.00;100.00
72157;BME280;60035;52.122;5.406;2023-05-12T06:26:00;101904.72;;;13.04;100.00
72157;BME280;60035;52.122;5.406;2023-05-12T06:28:26;101903.78;;;13.08;100.00
72157;BME280;60035;52.122;5.406;2023-05-12T06:30:52;101908.00;;;13.11;100.00
72157;BME280;60035;52.122;5.406;2023-05-12T06:33:19;101915.50;;;13.22;100.00
72157;BME280;60035;52.122;5.406;2023-05-12T06:35:46;101913.53;;;13.31;100.00
72157;BME280;60035;52.122;5.406;2023-05-12T06:38:12;101911.75;;;13.35;100.00
72157;BME280;60035;52.122;5.406;2023-05-12T06:40:39;101906.47;;;13.43;100.00
72157;BME280;60035;52.122;5.406;2023-05-12T06:43:05;101920.13;;;13.45;100.00
72157;BME280;60035;52.122;5.406;2023-05-12T06:45:32;101918.38;;;13.47;100.00
72157;BME280;60035;52.122;5.406;2023-05-12T06:47:58;101924.28;;;13.49;100.00
72157;BME280;60035;52.122;5.406;2023-05-12T06:50:26;101926.78;;;13.54;100.00
72157;BME280;60035;52.122;5.406;2023-05-12T06:52:53;101934.41;;;13.57;100.00
72157;BME280;60035;52.122;5.406;2023-05-12T06:55:22;101936.03;;;13.61;100.00
72157;BME280;60035;52.122;5.406;2023-05-12T06:57:49;101944.59;;;13.61;100.00
72157;BME280;60035;52.122;5.406;2023-05-12T07:00:24;101944.56;;;13.63;100.00
72157;BME280;60035;52.122;5.406;2023-05-12T07:02:51;101947.00;;;13.68;100.00
72157;BME280;60035;52.122;5.406;2023-05-12T07:05:18;101942.50;;;13.77;100.00
72157;BME280;60035;52.122;5.406;2023-05-12T07:07:45;101944.94;;;13.82;100.00
72157;BME280;60035;52.122;5.406;2023-05-12T07:10:12;101944.75;;;13.90;100.00
72157;BME280;60035;52.122;5.406;2023-05-12T07:12:38;101941.97;;;13.97;100.00
72157;BME280;60035;52.122;5.406;2023-05-12T07:15:05;101941.63;;;14.10;100.00
72157;BME280;60035;52.122;5.406;2023-05-12T07:17:32;101951.69;;;14.19;100.00
72157;BME280;60035;52.122;5.406;2023-05-12T07:19:58;101944.44;;;14.33;100.00
72157;BME280;60035;52.122;5.406;2023-05-12T07:22:25;101955.38;;;14.42;100.00
72157;BME280;60035;52.122;5.406;2023-05-12T07:24:52;101950.00;;;14.49;100.00
72157;BME280;60035;52.122;5.406;2023-05-12T07:27:19;101954.84;;;14.60;100.00
72157;BME280;60035;52.122;5.406;2023-05-12T07:29:45;101953.75;;;14.71;100.00
72157;BME280;60035;52.122;5.406;2023-05-12T07:32:12;101952.69;;;14.78;100.00
72157;BME280;60035;52.122;5.406;2023-05-12T07:34:38;101955.72;;;14.91;100.00
72157;BME280;60035;52.122;5.406;2023-05-12T07:37:05;101958.00;;;15.02;100.00
72157;BME280;60035;52.122;5.406;2023-05-12T07:39:31;101956.09;;;15.08;100.00
72157;BME280;60035;52.122;5.406;2023-05-12T07:41:58;101961.78;;;15.18;100.00
72157;BME280;60035;52.122;5.406;2023-05-12T07:44:25;101958.00;;;15.30;100.00
72157;BME280;60035;52.122;5.406;2023-05-12T07:46:52;101961.03;;;15.43;100.00
72157;BME280;60035;52.122;5.406;2023-05-12T07:49:18;101963.16;;;15.57;100.00
72157;BME280;60035;52.122;5.406;2023-05-12T07:51:45;101958.56;;;15.65;100.00
72157;BME280;60035;52.122;5.406;2023-05-12T07:54:11;101963.28;;;15.79;100.00
72157;BME280;60035;52.122;5.406;2023-05-12T07:56:38;101967.34;;;15.88;100.00
72157;BME280;60035;52.122;5.406;2023-05-12T07:59:05;101966.34;;;15.92;100.00
72157;BME280;60035;52.122;5.406;2023-05-12T08:01:31;101975.69;;;15.96;100.00
72157;BME280;60035;52.122;5.406;2023-05-12T08:03:58;101977.06;;;16.06;100.00
72157;BME280;60035;52.122;5.406;2023-05-12T08:06:24;101966.16;;;16.22;100.00
72157;BME280;60035;52.122;5.406;2023-05-12T08:08:51;101971.94;;;16.30;100.00
72157;BME280;60035;52.122;5.406;2023-05-12T08:11:17;101980.19;;;16.40;100.00
72157;BME280;60035;52.122;5.406;2023-05-12T08:13:43;101970.34;;;16.49;100.00
72157;BME280;60035;52.122;5.406;2023-05-12T08:16:10;101982.16;;;16.57;100.00
72157;BME280;60035;52.122;5.406;2023-05-12T08:18:36;101964.91;;;16.57;100.00
72157;BME280;60035;52.122;5.406;2023-05-12T08:21:04;101971.63;;;16.63;100.00
72157;BME280;60035;52.122;5.406;2023-05-12T08:23:31;101971.31;;;16.71;100.00
72157;BME280;60035;52.122;5.406;2023-05-12T08:25:57;101976.88;;;16.83;100.00
72157;BME280;60035;52.122;5.406;2023-05-12T08:28:23;101969.59;;;16.95;100.00
72157;BME280;60035;52.122;5.406;2023-05-12T08:30:50;101979.88;;;16.96;100.00
72157;BME280;60035;52.122;5.406;2023-05-12T08:33:16;101977.88;;;17.03;100.00
72157;BME280;60035;52.122;5.406;2023-05-12T08:35:43;101977.88;;;17.03;100.00
72157;BME280;60035;52.122;5.406;2023-05-12T08:38:09;101975.06;;;17.09;100.00
72157;BME280;60035;52.122;5.406;2023-05-12T08:43:44;101984.75;;;17.26;100.00
72157;BME280;60035;52.122;5.406;2023-05-12T08:46:12;101993.00;;;17.36;100.00
72157;BME280;60035;52.122;5.406;2023-05-12T08:48:39;101987.69;;;17.39;100.00
72157;BME280;60035;52.122;5.406;2023-05-12T08:51:07;101991.47;;;17.53;100.00
72157;BME280;60035;52.122;5.406;2023-05-12T08:53:36;101994.69;;;17.80;100.00
72157;BME280;60035;52.122;5.406;2023-05-12T08:56:06;101994.47;;;17.85;100.00
72157;BME280;60035;52.122;5.406;2023-05-12T08:58:36;101998.59;;;17.90;100.00
72157;BME280;60035;52.122;5.406;2023-05-12T09:01:10;101993.22;;;17.95;100.00
72157;BME280;60035;52.122;5.406;2023-05-12T09:03:37;101999.38;;;18.13;100.00
72157;BME280;60035;52.122;5.406;2023-05-12T09:06:05;102002.16;;;18.08;100.00
72157;BME280;60035;52.122;5.406;2023-05-12T09:08:32;102006.19;;;18.15;100.00
72157;BME280;60035;52.122;5.406;2023-05-12T09:11:00;102003.44;;;18.39;100.00
72157;BME280;60035;52.122;5.406;2023-05-12T09:16:30;102003.59;;;18.74;100.00
72157;BME280;60035;52.122;5.406;2023-05-12T09:18:59;102008.13;;;18.71;100.00
72157;BME280;60035;52.122;5.406;2023-05-12T09:21:26;102013.44;;;18.68;98.85
72157;BME280;60035;52.122;5.406;2023-05-12T09:24:03;102003.91;;;18.68;98.81
72157;BME280;60035;52.122;5.406;2023-05-12T09:26:49;102007.25;;;18.70;97.05
72157;BME280;60035;52.122;5.406;2023-05-12T09:29:17;102008.88;;;18.73;95.73
72157;BME280;60035;52.122;5.406;2023-05-12T09:31:58;102011.41;;;18.74;94.79
72157;BME280;60035;52.122;5.406;2023-05-12T09:34:31;102019.81;;;18.79;94.50
72157;BME280;60035;52.122;5.406;2023-05-12T09:36:59;102020.50;;;18.64;91.40
72157;BME280;60035;52.122;5.406;2023-05-12T09:39:26;102021.78;;;18.74;93.31
72157;BME280;60035;52.122;5.406;2023-05-12T09:41:54;102021.44;;;18.82;91.09
72157;BME280;60035;52.122;5.406;2023-05-12T09:44:22;102025.91;;;18.78;91.98
72157;BME280;60035;52.122;5.406;2023-05-12T09:46:49;102029.38;;;18.79;91.78
72157;BME280;60035;52.122;5.406;2023-05-12T09:49:20;102027.59;;;18.79;93.66
72157;BME280;60035;52.122;5.406;2023-05-12T09:51:51;102032.63;;;18.82;91.71
72157;BME280;60035;52.122;5.406;2023-05-12T09:54:25;102037.47;;;18.92;91.66
72157;BME280;60035;52.122;5.406;2023-05-12T09:56:56;102035.06;;;19.25;95.78
72157;BME280;60035;52.122;5.406;2023-05-12T09:59:23;102029.94;;;19.78;92.93
72157;BME280;60035;52.122;5.406;2023-05-12T10:01:57;102031.00;;;20.26;90.44
72157;BME280;60035;52.122;5.406;2023-05-12T10:04:25;102026.22;;;20.35;86.73
72157;BME280;60035;52.122;5.406;2023-05-12T10:06:52;102032.13;;;20.38;85.55
72157;BME280;60035;52.122;5.406;2023-05-12T10:09:27;102031.28;;;20.38;84.22
72157;BME280;60035;52.122;5.406;2023-05-12T10:11:56;102030.91;;;20.45;81.96
72157;BME280;60035;52.122;5.406;2023-05-12T10:14:23;102037.31;;;20.38;83.72
72157;BME280;60035;52.122;5.406;2023-05-12T10:16:50;102033.28;;;20.33;82.55
72157;BME280;60035;52.122;5.406;2023-05-12T10:19:18;102033.69;;;20.25;81.47
72157;BME280;60035;52.122;5.406;2023-05-12T10:21:46;102037.06;;;20.27;83.47
72157;BME280;60035;52.122;5.406;2023-05-12T10:24:15;102032.59;;;20.29;80.73
72157;BME280;60035;52.122;5.406;2023-05-12T10:26:43;102033.56;;;20.44;82.14
72157;BME280;60035;52.122;5.406;2023-05-12T10:29:10;102023.16;;;20.44;81.17
72157;BME280;60035;52.122;5.406;2023-05-12T10:31:37;102030.91;;;20.45;79.88
72157;BME280;60035;52.122;5.406;2023-05-12T10:34:04;102023.91;;;20.79;83.44
72157;BME280;60035;52.122;5.406;2023-05-12T10:36:42;102026.47;;;21.13;80.62
72157;BME280;60035;52.122;5.406;2023-05-12T10:39:12;102023.41;;;21.37;77.09
72157;BME280;60035;52.122;5.406;2023-05-12T10:41:40;102026.50;;;21.43;76.11
72157;BME280;60035;52.122;5.406;2023-05-12T10:44:07;102025.44;;;21.32;75.59
72157;BME280;60035;52.122;5.406;2023-05-12T10:46:36;102025.16;;;21.36;76.07
72157;BME280;60035;52.122;5.406;2023-05-12T10:49:08;102024.53;;;21.47;76.39
72157;BME280;60035;52.122;5.406;2023-05-12T10:54:10;102032.25;;;21.80;74.81
72157;BME280;60035;52.122;5.406;2023-05-12T10:59:18;102031.13;;;21.85;77.28
72157;BME280;60035;52.122;5.406;2023-05-12T11:07:15;102034.66;;;21.84;74.20
72157;BME280;60035;52.122;5.406;2023-05-12T11:09:43;102027.44;;;22.18;72.12
72157;BME280;60035;52.122;5.406;2023-05-12T11:12:25;102034.94;;;22.53;70.77
72157;BME280;60035;52.122;5.406;2023-05-12T11:14:52;102031.59;;;22.65;69.20
72157;BME280;60035;52.122;5.406;2023-05-12T11:17:19;102022.06;;;22.64;68.60
72157;BME280;60035;52.122;5.406;2023-05-12T11:19:49;102018.44;;;22.52;66.14
72157;BME280;60035;52.122;5.406;2023-05-12T11:22:17;102035.50;;;22.43;68.42
72157;BME280;60035;52.122;5.406;2023-05-12T11:24:46;102035.13;;;22.50;65.87
72157;BME280;60035;52.122;5.406;2023-05-12T11:27:15;102038.25;;;22.26;66.62
72157;BME280;60035;52.122;5.406;2023-05-12T11:29:42;102041.69;;;22.12;66.57
72157;BME280;60035;52.122;5.406;2023-05-12T11:32:10;102031.56;;;22.22;65.11
72157;BME280;60035;52.122;5.406;2023-05-12T11:34:37;102042.97;;;22.35;67.15
72157;BME280;60035;52.122;5.406;2023-05-12T11:37:04;102035.69;;;22.55;65.70
72157;BME280;60035;52.122;5.406;2023-05-12T11:39:35;102040.13;;;22.82;62.19
72157;BME280;60035;52.122;5.406;2023-05-12T11:42:02;102035.72;;;22.82;63.09
72157;BME280;60035;52.122;5.406;2023-05-12T11:44:47;102041.09;;;23.08;60.73
72157;BME280;60035;52.122;5.406;2023-05-12T11:47:14;102037.00;;;23.18;60.25
72157;BME280;60035;52.122;5.406;2023-05-12T11:49:49;102039.19;;;23.52;61.20
72157;BME280;60035;52.122;5.406;2023-05-12T11:52:17;102037.56;;;23.76;56.45
72157;BME280;60035;52.122;5.406;2023-05-12T11:54:49;102034.06;;;24.16;57.43
72157;BME280;60035;52.122;5.406;2023-05-12T11:57:26;102034.28;;;24.26;57.50
72157;BME280;60035;52.122;5.406;2023-05-12T11:59:57;102031.00;;;24.48;66.01
72157;BME280;60035;52.122;5.406;2023-05-12T12:02:24;102038.22;;;24.57;55.91
72157;BME280;60035;52.122;5.406;2023-05-12T12:04:51;102041.78;;;24.43;55.47
72157;BME280;60035;52.122;5.406;2023-05-12T12:07:32;102033.94;;;24.43;56.25
72157;BME280;60035;52.122;5.406;2023-05-12T12:10:16;102046.72;;;24.22;57.33
72157;BME280;60035;52.122;5.406;2023-05-12T12:12:43;102040.13;;;24.17;54.29
72157;BME280;60035;52.122;5.406;2023-05-12T12:15:11;102039.09;;;24.06;52.73
72157;BME280;60035;52.122;5.406;2023-05-12T12:17:39;102036.28;;;23.69;52.72
72157;BME280;60035;52.122;5.406;2023-05-12T12:20:06;102050.41;;;23.67;54.59
72157;BME280;60035;52.122;5.406;2023-05-12T12:22:34;102043.53;;;23.66;52.45
72157;BME280;60035;52.122;5.406;2023-05-12T12:25:01;102045.63;;;23.33;53.59
72157;BME280;60035;52.122;5.406;2023-05-12T12:27:28;102040.81;;;23.40;54.44
72157;BME280;60035;52.122;5.406;2023-05-12T12:29:55;102040.78;;;23.27;51.53
72157;BME280;60035;52.122;5.406;2023-05-12T12:32:21;102046.22;;;23.09;53.12
72157;BME280;60035;52.122;5.406;2023-05-12T12:34:47;102045.97;;;23.14;52.28
72157;BME280;60035;52.122;5.406;2023-05-12T12:37:14;102041.53;;;23.29;52.18
72157;BME280;60035;52.122;5.406;2023-05-12T12:39:41;102043.88;;;23.46;54.77
72157;BME280;60035;52.122;5.406;2023-05-12T12:42:08;102042.66;;;23.65;54.00
72157;BME280;60035;52.122;5.406;2023-05-12T12:44:34;102045.00;;;23.83;53.61
72157;BME280;60035;52.122;5.406;2023-05-12T12:47:01;102048.00;;;23.91;50.80
72157;BME280;60035;52.122;5.406;2023-05-12T12:49:27;102046.50;;;23.87;52.46
72157;BME280;60035;52.122;5.406;2023-05-12T12:51:54;102047.22;;;23.89;52.51
72157;BME280;60035;52.122;5.406;2023-05-12T12:54:21;102046.50;;;23.87;52.57
72157;BME280;60035;52.122;5.406;2023-05-12T12:56:47;102050.38;;;23.94;54.77
72157;BME280;60035;52.122;5.406;2023-05-12T12:59:14;102051.47;;;24.17;53.58
72157;BME280;60035;52.122;5.406;2023-05-12T13:01:40;102047.06;;;24.31;53.34